Terminal Aerodrome Forecast
Issued by NWS

Home | Current Version | Previous Version | Text Only | Print | Product List | Glossary On
Versions: 1 2 3 4 5 6 7 8 9 10 11 12 13 14 15 16 17 18 19 20
746
FTUS44 KBMX 240539
TAFTOI
TAF
KTOI 240539Z 2406/2506 00000KT P6SM SCT070
     FM240800 VRB03KT P6SM BKN020
     FM241000 VRB03KT P6SM VCSH BKN007
     FM241500 26006KT P6SM VCSH BKN015
     FM241800 25006KT P6SM VCSH BKN035
     FM250100 30003KT P6SM BKN050=

USA.gov is the U.S. government's official web portal to all federal, state and local government web resources and services.